Terminal Aerodrome Forecast
Issued by NWS

Home | Current Version | Previous Version | Text Only | Print | Product List | Glossary On
Versions: 1 2 3 4 5 6 7 8 9 10 11 12 13 14 15 16 17 18 19 20 21 22 23 24 25 26 27 28 29 30 31 32
000
FTUS42 KRAH 141145 CCA
TAFRWI
TAF COR
KRWI 141145Z 1412/1512 35008KT P6SM SKC
     FM141400 04010KT P6SM FEW150
     FM142100 08007KT P6SM BKN100
     FM150400 09008KT P6SM OVC045
     FM150800 06008KT 5SM -SN OVC030=

USA.gov is the U.S. government's official web portal to all federal, state and local government web resources and services.